Kellys Korner, Washington
Current Conditions -  °F | °C
As of 12:54 PM on Friday 28 Nov 2014 (Local Time) from KOLM Reporting Station
Light Rain Light Rain  
Wind Chill: 49°   Ceiling: 3600
Heat Index: 49°   Visibility: 1.7mi
Dew Point: 47°   Wind: 0mph
Humidity: 93%   Direction: NA
Pressure: 29.47"   Gusts: NA
Location:  46.9679°N, 122.834°W
Report Text: KOLM 282054Z 00000KT 1 3/4SM -RA BR OVC036 09/08 A2947 RMK AO2 SLP980 P0008 60018 T00940083 55011
Loading
Personal Weather Stations






























Interactive Weather Map New forecast layout! Learn more

10-Day Weather Forecast

Advertisements
Track Severe Weather on mobile